sensor_id;sensor_type;location;lat;lon;timestamp;P1;durP1;ratioP1;P2;durP2;ratioP2
63342;SDS011;49465;57.664;39.686;2022-11-14T00:00:54;1.70;;;0.60;;
63342;SDS011;49465;57.664;39.686;2022-11-14T00:03:23;1.67;;;0.70;;
63342;SDS011;49465;57.664;39.686;2022-11-14T00:05:52;1.20;;;0.60;;
63342;SDS011;49465;57.664;39.686;2022-11-14T00:08:20;0.73;;;0.63;;
63342;SDS011;49465;57.664;39.686;2022-11-14T00:10:48;1.10;;;0.60;;
63342;SDS011;49465;57.664;39.686;2022-11-14T00:13:19;1.10;;;0.60;;
63342;SDS011;49465;57.664;39.686;2022-11-14T00:15:49;0.82;;;0.52;;
63342;SDS011;49465;57.664;39.686;2022-11-14T00:18:18;1.13;;;0.68;;
63342;SDS011;49465;57.664;39.686;2022-11-14T00:20:49;1.92;;;0.77;;
63342;SDS011;49465;57.664;39.686;2022-11-14T00:23:18;1.38;;;0.77;;
63342;SDS011;49465;57.664;39.686;2022-11-14T00:25:45;1.23;;;0.60;;
63342;SDS011;49465;57.664;39.686;2022-11-14T00:28:14;2.25;;;0.60;;
63342;SDS011;49465;57.664;39.686;2022-11-14T00:30:40;1.05;;;0.70;;
63342;SDS011;49465;57.664;39.686;2022-11-14T00:33:10;0.80;;;0.60;;
63342;SDS011;49465;57.664;39.686;2022-11-14T00:35:37;2.00;;;0.80;;
63342;SDS011;49465;57.664;39.686;2022-11-14T00:38:05;1.67;;;0.82;;
63342;SDS011;49465;57.664;39.686;2022-11-14T00:40:35;1.13;;;0.70;;
63342;SDS011;49465;57.664;39.686;2022-11-14T00:43:03;1.73;;;0.60;;
63342;SDS011;49465;57.664;39.686;2022-11-14T00:45:34;1.13;;;0.73;;
63342;SDS011;49465;57.664;39.686;2022-11-14T00:48:00;1.83;;;0.65;;
63342;SDS011;49465;57.664;39.686;2022-11-14T00:50:27;1.77;;;0.90;;
63342;SDS011;49465;57.664;39.686;2022-11-14T00:52:53;1.75;;;0.70;;
63342;SDS011;49465;57.664;39.686;2022-11-14T00:55:20;1.60;;;0.73;;
63342;SDS011;49465;57.664;39.686;2022-11-14T00:57:51;4.05;;;0.68;;
63342;SDS011;49465;57.664;39.686;2022-11-14T01:00:18;2.05;;;0.90;;
63342;SDS011;49465;57.664;39.686;2022-11-14T01:02:47;1.55;;;0.70;;
63342;SDS011;49465;57.664;39.686;2022-11-14T01:05:16;1.45;;;0.60;;
63342;SDS011;49465;57.664;39.686;2022-11-14T01:07:45;2.47;;;0.80;;
63342;SDS011;49465;57.664;39.686;2022-11-14T01:10:11;2.60;;;0.60;;
63342;SDS011;49465;57.664;39.686;2022-11-14T01:12:42;2.38;;;0.50;;
63342;SDS011;49465;57.664;39.686;2022-11-14T01:15:09;2.28;;;0.60;;
63342;SDS011;49465;57.664;39.686;2022-11-14T01:17:38;1.80;;;0.70;;
63342;SDS011;49465;57.664;39.686;2022-11-14T01:20:04;2.10;;;0.60;;
63342;SDS011;49465;57.664;39.686;2022-11-14T01:22:34;1.65;;;0.60;;
63342;SDS011;49465;57.664;39.686;2022-11-14T01:25:05;2.15;;;0.70;;
63342;SDS011;49465;57.664;39.686;2022-11-14T01:27:32;1.63;;;0.57;;
63342;SDS011;49465;57.664;39.686;2022-11-14T01:30:07;4.57;;;0.70;;
63342;SDS011;49465;57.664;39.686;2022-11-14T01:32:34;2.33;;;0.70;;
63342;SDS011;49465;57.664;39.686;2022-11-14T01:35:05;3.45;;;0.93;;
63342;SDS011;49465;57.664;39.686;2022-11-14T01:37:35;2.03;;;0.70;;
63342;SDS011;49465;57.664;39.686;2022-11-14T01:40:03;1.75;;;0.70;;
63342;SDS011;49465;57.664;39.686;2022-11-14T01:42:30;2.05;;;0.60;;
63342;SDS011;49465;57.664;39.686;2022-11-14T01:44:59;2.45;;;0.65;;
63342;SDS011;49465;57.664;39.686;2022-11-14T01:47:26;2.53;;;0.80;;
63342;SDS011;49465;57.664;39.686;2022-11-14T01:49:59;1.88;;;0.80;;
63342;SDS011;49465;57.664;39.686;2022-11-14T01:52:33;4.25;;;0.80;;
63342;SDS011;49465;57.664;39.686;2022-11-14T01:57:43;2.90;;;0.80;;
63342;SDS011;49465;57.664;39.686;2022-11-14T02:00:11;2.78;;;0.90;;
63342;SDS011;49465;57.664;39.686;2022-11-14T02:02:38;1.48;;;0.60;;
63342;SDS011;49465;57.664;39.686;2022-11-14T02:05:06;3.53;;;0.80;;
63342;SDS011;49465;57.664;39.686;2022-11-14T02:07:38;1.52;;;0.60;;
63342;SDS011;49465;57.664;39.686;2022-11-14T02:10:09;2.83;;;0.85;;
63342;SDS011;49465;57.664;39.686;2022-11-14T02:12:43;2.15;;;0.65;;
63342;SDS011;49465;57.664;39.686;2022-11-14T02:15:14;2.72;;;0.70;;
63342;SDS011;49465;57.664;39.686;2022-11-14T02:17:41;2.83;;;0.80;;
63342;SDS011;49465;57.664;39.686;2022-11-14T02:22:38;2.30;;;0.70;;
63342;SDS011;49465;57.664;39.686;2022-11-14T02:25:06;3.28;;;0.60;;
63342;SDS011;49465;57.664;39.686;2022-11-14T02:27:37;2.50;;;0.70;;
63342;SDS011;49465;57.664;39.686;2022-11-14T02:30:05;1.65;;;0.60;;
63342;SDS011;49465;57.664;39.686;2022-11-14T02:32:33;2.97;;;0.77;;
63342;SDS011;49465;57.664;39.686;2022-11-14T02:35:08;2.90;;;0.70;;
63342;SDS011;49465;57.664;39.686;2022-11-14T02:37:42;1.73;;;0.80;;
63342;SDS011;49465;57.664;39.686;2022-11-14T02:40:13;2.50;;;1.00;;
63342;SDS011;49465;57.664;39.686;2022-11-14T02:42:46;3.30;;;0.90;;
63342;SDS011;49465;57.664;39.686;2022-11-14T02:45:18;3.85;;;0.80;;
63342;SDS011;49465;57.664;39.686;2022-11-14T02:47:47;1.40;;;0.80;;
63342;SDS011;49465;57.664;39.686;2022-11-14T02:50:19;2.85;;;0.77;;
63342;SDS011;49465;57.664;39.686;2022-11-14T02:52:48;3.45;;;1.17;;
63342;SDS011;49465;57.664;39.686;2022-11-14T02:55:18;1.42;;;0.70;;
63342;SDS011;49465;57.664;39.686;2022-11-14T02:57:47;2.92;;;0.68;;
63342;SDS011;49465;57.664;39.686;2022-11-14T03:00:19;2.42;;;0.80;;
63342;SDS011;49465;57.664;39.686;2022-11-14T03:02:59;1.63;;;0.80;;
63342;SDS011;49465;57.664;39.686;2022-11-14T03:05:26;2.55;;;0.90;;
63342;SDS011;49465;57.664;39.686;2022-11-14T03:07:56;1.58;;;0.90;;
63342;SDS011;49465;57.664;39.686;2022-11-14T03:10:27;1.75;;;1.00;;
63342;SDS011;49465;57.664;39.686;2022-11-14T03:12:54;2.38;;;1.05;;
63342;SDS011;49465;57.664;39.686;2022-11-14T03:15:24;2.53;;;1.20;;
63342;SDS011;49465;57.664;39.686;2022-11-14T03:18:01;2.70;;;0.95;;
63342;SDS011;49465;57.664;39.686;2022-11-14T03:20:30;3.53;;;1.20;;
63342;SDS011;49465;57.664;39.686;2022-11-14T03:22:56;2.78;;;1.00;;
63342;SDS011;49465;57.664;39.686;2022-11-14T03:25:28;2.03;;;0.90;;
63342;SDS011;49465;57.664;39.686;2022-11-14T03:27:54;2.88;;;0.95;;
63342;SDS011;49465;57.664;39.686;2022-11-14T03:30:23;3.28;;;1.10;;
63342;SDS011;49465;57.664;39.686;2022-11-14T03:32:50;3.10;;;1.15;;
63342;SDS011;49465;57.664;39.686;2022-11-14T03:35:19;4.07;;;1.40;;
63342;SDS011;49465;57.664;39.686;2022-11-14T03:37:48;3.28;;;0.80;;
63342;SDS011;49465;57.664;39.686;2022-11-14T03:40:18;3.22;;;1.10;;
63342;SDS011;49465;57.664;39.686;2022-11-14T03:42:44;3.40;;;1.17;;
63342;SDS011;49465;57.664;39.686;2022-11-14T03:45:15;3.70;;;0.88;;
63342;SDS011;49465;57.664;39.686;2022-11-14T03:47:45;3.30;;;0.95;;
63342;SDS011;49465;57.664;39.686;2022-11-14T03:50:13;5.63;;;1.50;;
63342;SDS011;49465;57.664;39.686;2022-11-14T03:52:40;3.97;;;1.30;;
63342;SDS011;49465;57.664;39.686;2022-11-14T03:55:09;5.22;;;1.40;;
63342;SDS011;49465;57.664;39.686;2022-11-14T03:57:40;4.25;;;1.52;;
63342;SDS011;49465;57.664;39.686;2022-11-14T04:00:07;3.25;;;1.45;;
63342;SDS011;49465;57.664;39.686;2022-11-14T04:02:36;2.47;;;1.20;;
63342;SDS011;49465;57.664;39.686;2022-11-14T04:05:02;3.17;;;1.50;;
63342;SDS011;49465;57.664;39.686;2022-11-14T04:07:29;5.00;;;1.70;;
63342;SDS011;49465;57.664;39.686;2022-11-14T04:10:01;2.65;;;1.13;;
63342;SDS011;49465;57.664;39.686;2022-11-14T04:12:27;3.53;;;1.20;;
63342;SDS011;49465;57.664;39.686;2022-11-14T04:14:54;2.88;;;1.10;;
63342;SDS011;49465;57.664;39.686;2022-11-14T04:17:22;3.67;;;1.90;;
63342;SDS011;49465;57.664;39.686;2022-11-14T04:19:49;3.17;;;1.33;;
63342;SDS011;49465;57.664;39.686;2022-11-14T04:22:17;3.35;;;1.00;;
63342;SDS011;49465;57.664;39.686;2022-11-14T04:24:44;4.40;;;1.60;;
63342;SDS011;49465;57.664;39.686;2022-11-14T04:27:18;3.30;;;1.30;;
63342;SDS011;49465;57.664;39.686;2022-11-14T04:29:46;3.83;;;1.67;;
63342;SDS011;49465;57.664;39.686;2022-11-14T04:32:15;3.80;;;1.58;;
63342;SDS011;49465;57.664;39.686;2022-11-14T04:34:44;4.65;;;1.30;;
63342;SDS011;49465;57.664;39.686;2022-11-14T04:37:16;3.03;;;1.40;;
63342;SDS011;49465;57.664;39.686;2022-11-14T04:39:46;2.78;;;1.40;;
63342;SDS011;49465;57.664;39.686;2022-11-14T04:42:20;4.30;;;1.63;;
63342;SDS011;49465;57.664;39.686;2022-11-14T04:44:52;3.33;;;1.50;;
63342;SDS011;49465;57.664;39.686;2022-11-14T04:47:24;4.15;;;1.50;;
63342;SDS011;49465;57.664;39.686;2022-11-14T04:49:51;3.97;;;1.42;;
63342;SDS011;49465;57.664;39.686;2022-11-14T04:52:20;3.00;;;1.30;;
63342;SDS011;49465;57.664;39.686;2022-11-14T04:54:54;4.35;;;1.38;;
63342;SDS011;49465;57.664;39.686;2022-11-14T04:57:24;5.32;;;1.20;;
63342;SDS011;49465;57.664;39.686;2022-11-14T04:59:59;2.75;;;1.30;;
63342;SDS011;49465;57.664;39.686;2022-11-14T05:02:30;3.50;;;1.10;;
63342;SDS011;49465;57.664;39.686;2022-11-14T05:05:07;4.57;;;1.50;;
63342;SDS011;49465;57.664;39.686;2022-11-14T05:07:40;4.25;;;1.70;;
63342;SDS011;49465;57.664;39.686;2022-11-14T05:10:11;3.60;;;1.35;;
63342;SDS011;49465;57.664;39.686;2022-11-14T05:12:45;4.53;;;1.48;;
63342;SDS011;49465;57.664;39.686;2022-11-14T05:15:16;4.18;;;1.17;;
63342;SDS011;49465;57.664;39.686;2022-11-14T05:17:48;4.15;;;1.08;;
63342;SDS011;49465;57.664;39.686;2022-11-14T05:20:27;4.55;;;1.30;;
63342;SDS011;49465;57.664;39.686;2022-11-14T05:22:53;7.38;;;1.50;;
63342;SDS011;49465;57.664;39.686;2022-11-14T05:25:23;5.97;;;1.45;;
63342;SDS011;49465;57.664;39.686;2022-11-14T05:27:55;5.22;;;1.50;;
63342;SDS011;49465;57.664;39.686;2022-11-14T05:30:26;4.60;;;1.30;;
63342;SDS011;49465;57.664;39.686;2022-11-14T05:32:55;5.53;;;1.33;;
63342;SDS011;49465;57.664;39.686;2022-11-14T05:35:24;3.28;;;1.10;;
63342;SDS011;49465;57.664;39.686;2022-11-14T05:37:55;5.68;;;1.40;;
63342;SDS011;49465;57.664;39.686;2022-11-14T05:40:32;3.38;;;1.13;;
63342;SDS011;49465;57.664;39.686;2022-11-14T05:42:59;3.40;;;0.95;;
63342;SDS011;49465;57.664;39.686;2022-11-14T05:45:29;3.88;;;1.10;;
63342;SDS011;49465;57.664;39.686;2022-11-14T05:48:04;5.38;;;1.40;;
63342;SDS011;49465;57.664;39.686;2022-11-14T05:50:33;5.60;;;1.23;;
63342;SDS011;49465;57.664;39.686;2022-11-14T05:53:05;5.40;;;1.13;;
63342;SDS011;49465;57.664;39.686;2022-11-14T05:55:31;7.65;;;1.27;;
63342;SDS011;49465;57.664;39.686;2022-11-14T05:57:58;5.22;;;1.67;;
63342;SDS011;49465;57.664;39.686;2022-11-14T06:00:27;8.13;;;2.25;;
63342;SDS011;49465;57.664;39.686;2022-11-14T06:02:55;6.88;;;2.38;;
63342;SDS011;49465;57.664;39.686;2022-11-14T06:05:27;5.00;;;1.70;;
63342;SDS011;49465;57.664;39.686;2022-11-14T06:08:00;7.53;;;2.25;;
63342;SDS011;49465;57.664;39.686;2022-11-14T06:10:27;3.13;;;1.60;;
63342;SDS011;49465;57.664;39.686;2022-11-14T06:12:53;5.75;;;1.77;;
63342;SDS011;49465;57.664;39.686;2022-11-14T06:15:34;7.40;;;2.65;;
63342;SDS011;49465;57.664;39.686;2022-11-14T06:18:07;8.88;;;2.80;;
63342;SDS011;49465;57.664;39.686;2022-11-14T06:20:39;8.95;;;2.40;;
63342;SDS011;49465;57.664;39.686;2022-11-14T06:23:19;8.02;;;2.72;;
63342;SDS011;49465;57.664;39.686;2022-11-14T06:25:48;7.97;;;3.00;;
63342;SDS011;49465;57.664;39.686;2022-11-14T06:28:23;6.78;;;2.58;;
63342;SDS011;49465;57.664;39.686;2022-11-14T06:30:55;5.65;;;2.17;;
63342;SDS011;49465;57.664;39.686;2022-11-14T06:33:32;4.40;;;1.85;;
63342;SDS011;49465;57.664;39.686;2022-11-14T06:36:00;6.22;;;1.92;;
63342;SDS011;49465;57.664;39.686;2022-11-14T06:38:34;6.35;;;1.88;;
63342;SDS011;49465;57.664;39.686;2022-11-14T06:41:08;4.70;;;1.60;;
63342;SDS011;49465;57.664;39.686;2022-11-14T06:43:45;5.13;;;1.92;;
63342;SDS011;49465;57.664;39.686;2022-11-14T06:46:22;5.43;;;1.80;;
63342;SDS011;49465;57.664;39.686;2022-11-14T06:48:51;4.78;;;1.67;;
63342;SDS011;49465;57.664;39.686;2022-11-14T06:51:19;4.40;;;1.50;;
63342;SDS011;49465;57.664;39.686;2022-11-14T06:53:49;4.93;;;1.48;;
63342;SDS011;49465;57.664;39.686;2022-11-14T06:56:23;5.25;;;1.73;;
63342;SDS011;49465;57.664;39.686;2022-11-14T06:58:55;5.50;;;1.98;;
63342;SDS011;49465;57.664;39.686;2022-11-14T07:01:32;5.35;;;1.35;;
63342;SDS011;49465;57.664;39.686;2022-11-14T07:03:58;4.47;;;1.65;;
63342;SDS011;49465;57.664;39.686;2022-11-14T07:06:33;3.63;;;1.30;;
63342;SDS011;49465;57.664;39.686;2022-11-14T07:09:04;4.38;;;1.63;;
63342;SDS011;49465;57.664;39.686;2022-11-14T07:11:34;4.07;;;1.40;;
63342;SDS011;49465;57.664;39.686;2022-11-14T07:14:02;4.93;;;1.50;;
63342;SDS011;49465;57.664;39.686;2022-11-14T07:16:32;3.63;;;1.20;;
63342;SDS011;49465;57.664;39.686;2022-11-14T07:19:03;5.53;;;1.23;;
63342;SDS011;49465;57.664;39.686;2022-11-14T07:21:30;4.03;;;1.08;;
63342;SDS011;49465;57.664;39.686;2022-11-14T07:24:01;5.85;;;1.38;;
63342;SDS011;49465;57.664;39.686;2022-11-14T07:26:27;3.92;;;1.20;;
63342;SDS011;49465;57.664;39.686;2022-11-14T07:28:56;4.47;;;1.27;;
63342;SDS011;49465;57.664;39.686;2022-11-14T07:31:30;3.42;;;1.20;;
63342;SDS011;49465;57.664;39.686;2022-11-14T07:36:36;3.78;;;1.00;;
63342;SDS011;49465;57.664;39.686;2022-11-14T07:41:39;4.80;;;1.25;;
63342;SDS011;49465;57.664;39.686;2022-11-14T07:44:17;4.55;;;1.15;;
63342;SDS011;49465;57.664;39.686;2022-11-14T07:46:43;5.80;;;1.52;;
63342;SDS011;49465;57.664;39.686;2022-11-14T07:49:12;4.82;;;1.17;;
63342;SDS011;49465;57.664;39.686;2022-11-14T07:51:39;3.42;;;1.23;;
63342;SDS011;49465;57.664;39.686;2022-11-14T07:54:11;3.15;;;1.23;;
63342;SDS011;49465;57.664;39.686;2022-11-14T07:56:43;4.22;;;1.27;;
63342;SDS011;49465;57.664;39.686;2022-11-14T07:59:17;4.80;;;1.20;;
63342;SDS011;49465;57.664;39.686;2022-11-14T08:01:48;8.65;;;1.65;;
63342;SDS011;49465;57.664;39.686;2022-11-14T08:04:17;5.88;;;1.27;;
63342;SDS011;49465;57.664;39.686;2022-11-14T08:06:46;3.58;;;1.23;;
63342;SDS011;49465;57.664;39.686;2022-11-14T08:09:12;4.30;;;1.13;;
63342;SDS011;49465;57.664;39.686;2022-11-14T08:11:49;6.45;;;1.67;;
63342;SDS011;49465;57.664;39.686;2022-11-14T08:14:18;4.25;;;0.90;;
63342;SDS011;49465;57.664;39.686;2022-11-14T08:17:02;2.53;;;0.80;;
63342;SDS011;49465;57.664;39.686;2022-11-14T08:19:34;4.00;;;1.05;;
63342;SDS011;49465;57.664;39.686;2022-11-14T08:22:03;3.35;;;1.10;;
63342;SDS011;49465;57.664;39.686;2022-11-14T08:24:35;4.25;;;1.10;;
63342;SDS011;49465;57.664;39.686;2022-11-14T08:27:06;3.47;;;0.82;;
63342;SDS011;49465;57.664;39.686;2022-11-14T08:29:40;5.13;;;1.00;;
63342;SDS011;49465;57.664;39.686;2022-11-14T08:32:15;3.90;;;1.13;;
63342;SDS011;49465;57.664;39.686;2022-11-14T08:34:47;2.45;;;0.90;;
63342;SDS011;49465;57.664;39.686;2022-11-14T08:37:19;6.00;;;1.25;;
63342;SDS011;49465;57.664;39.686;2022-11-14T08:40:02;4.13;;;1.02;;
63342;SDS011;49465;57.664;39.686;2022-11-14T08:42:31;3.40;;;1.15;;
63342;SDS011;49465;57.664;39.686;2022-11-14T08:45:04;3.60;;;1.17;;
63342;SDS011;49465;57.664;39.686;2022-11-14T08:47:33;3.55;;;1.20;;
63342;SDS011;49465;57.664;39.686;2022-11-14T08:49:59;4.63;;;1.15;;
63342;SDS011;49465;57.664;39.686;2022-11-14T08:52:29;5.20;;;1.10;;
63342;SDS011;49465;57.664;39.686;2022-11-14T08:54:57;2.95;;;1.00;;
63342;SDS011;49465;57.664;39.686;2022-11-14T08:57:26;2.45;;;1.30;;
63342;SDS011;49465;57.664;39.686;2022-11-14T09:00:03;5.20;;;1.27;;
63342;SDS011;49465;57.664;39.686;2022-11-14T09:02:41;2.97;;;0.90;;
63342;SDS011;49465;57.664;39.686;2022-11-14T09:05:15;3.97;;;1.05;;
63342;SDS011;49465;57.664;39.686;2022-11-14T09:07:46;4.03;;;1.13;;
63342;SDS011;49465;57.664;39.686;2022-11-14T09:10:13;3.78;;;1.20;;
63342;SDS011;49465;57.664;39.686;2022-11-14T09:12:47;5.03;;;1.20;;
63342;SDS011;49465;57.664;39.686;2022-11-14T09:15:26;3.10;;;1.20;;
63342;SDS011;49465;57.664;39.686;2022-11-14T09:17:56;2.63;;;1.08;;
63342;SDS011;49465;57.664;39.686;2022-11-14T09:20:27;4.47;;;1.00;;
63342;SDS011;49465;57.664;39.686;2022-11-14T09:22:59;2.53;;;0.90;;
63342;SDS011;49465;57.664;39.686;2022-11-14T09:25:38;3.25;;;0.90;;
63342;SDS011;49465;57.664;39.686;2022-11-14T09:28:05;2.53;;;0.88;;
63342;SDS011;49465;57.664;39.686;2022-11-14T09:30:36;4.80;;;0.75;;
63342;SDS011;49465;57.664;39.686;2022-11-14T09:33:08;7.38;;;1.10;;
63342;SDS011;49465;57.664;39.686;2022-11-14T09:35:34;1.95;;;0.90;;
63342;SDS011;49465;57.664;39.686;2022-11-14T09:38:04;2.00;;;0.70;;
63342;SDS011;49465;57.664;39.686;2022-11-14T09:46:34;2.05;;;0.90;;
63342;SDS011;49465;57.664;39.686;2022-11-14T09:49:22;3.03;;;0.75;;
63342;SDS011;49465;57.664;39.686;2022-11-14T09:51:52;2.20;;;0.68;;
63342;SDS011;49465;57.664;39.686;2022-11-14T09:54:35;2.60;;;0.70;;
63342;SDS011;49465;57.664;39.686;2022-11-14T09:57:18;2.72;;;1.05;;
63342;SDS011;49465;57.664;39.686;2022-11-14T09:59:45;3.33;;;1.30;;
63342;SDS011;49465;57.664;39.686;2022-11-14T10:02:32;2.13;;;0.60;;
63342;SDS011;49465;57.664;39.686;2022-11-14T10:16:52;2.38;;;0.70;;
63342;SDS011;49465;57.664;39.686;2022-11-14T10:21:53;3.90;;;1.30;;
63342;SDS011;49465;57.664;39.686;2022-11-14T10:25:21;2.72;;;1.45;;
63342;SDS011;49465;57.664;39.686;2022-11-14T10:30:34;4.88;;;1.30;;
63342;SDS011;49465;57.664;39.686;2022-11-14T10:35:45;2.38;;;1.48;;
63342;SDS011;49465;57.664;39.686;2022-11-14T10:38:32;4.05;;;1.00;;
63342;SDS011;49465;57.664;39.686;2022-11-14T10:41:07;2.78;;;0.98;;
63342;SDS011;49465;57.664;39.686;2022-11-14T10:43:53;1.95;;;1.05;;
63342;SDS011;49465;57.664;39.686;2022-11-14T10:46:35;2.03;;;0.90;;
63342;SDS011;49465;57.664;39.686;2022-11-14T10:49:18;1.15;;;0.73;;
63342;SDS011;49465;57.664;39.686;2022-11-14T10:51:55;2.05;;;0.90;;
63342;SDS011;49465;57.664;39.686;2022-11-14T10:54:30;4.15;;;0.80;;
63342;SDS011;49465;57.664;39.686;2022-11-14T10:57:15;2.60;;;0.90;;
63342;SDS011;49465;57.664;39.686;2022-11-14T10:59:49;2.92;;;0.85;;
63342;SDS011;49465;57.664;39.686;2022-11-14T11:02:19;2.77;;;0.87;;
63342;SDS011;49465;57.664;39.686;2022-11-14T11:04:51;1.30;;;0.80;;
63342;SDS011;49465;57.664;39.686;2022-11-14T11:07:21;5.32;;;1.20;;
63342;SDS011;49465;57.664;39.686;2022-11-14T11:10:19;2.67;;;1.00;;
63342;SDS011;49465;57.664;39.686;2022-11-14T11:13:05;4.60;;;0.88;;
63342;SDS011;49465;57.664;39.686;2022-11-14T11:15:40;2.28;;;0.93;;
63342;SDS011;49465;57.664;39.686;2022-11-14T11:23:52;2.58;;;0.77;;
63342;SDS011;49465;57.664;39.686;2022-11-14T11:26:24;3.53;;;0.73;;
63342;SDS011;49465;57.664;39.686;2022-11-14T11:29:04;2.08;;;0.70;;
63342;SDS011;49465;57.664;39.686;2022-11-14T11:31:50;4.30;;;1.52;;
63342;SDS011;49465;57.664;39.686;2022-11-14T11:34:30;12.20;;;7.07;;
63342;SDS011;49465;57.664;39.686;2022-11-14T11:39:29;5.53;;;3.03;;
63342;SDS011;49465;57.664;39.686;2022-11-14T11:42:07;5.82;;;3.20;;
63342;SDS011;49465;57.664;39.686;2022-11-14T11:44:45;6.55;;;2.67;;
63342;SDS011;49465;57.664;39.686;2022-11-14T11:47:15;3.37;;;1.47;;
63342;SDS011;49465;57.664;39.686;2022-11-14T11:49:48;3.22;;;1.50;;
63342;SDS011;49465;57.664;39.686;2022-11-14T11:55:26;3.13;;;1.10;;
63342;SDS011;49465;57.664;39.686;2022-11-14T11:58:18;2.55;;;1.20;;
63342;SDS011;49465;57.664;39.686;2022-11-14T12:00:52;1.80;;;0.95;;
63342;SDS011;49465;57.664;39.686;2022-11-14T12:03:27;2.42;;;0.90;;
63342;SDS011;49465;57.664;39.686;2022-11-14T12:06:11;2.13;;;1.10;;
63342;SDS011;49465;57.664;39.686;2022-11-14T12:11:42;3.25;;;1.13;;
63342;SDS011;49465;57.664;39.686;2022-11-14T12:28:07;2.30;;;0.90;;
63342;SDS011;49465;57.664;39.686;2022-11-14T12:30:38;3.05;;;0.80;;
63342;SDS011;49465;57.664;39.686;2022-11-14T12:33:16;3.10;;;0.90;;
63342;SDS011;49465;57.664;39.686;2022-11-14T12:36:02;2.70;;;1.00;;
63342;SDS011;49465;57.664;39.686;2022-11-14T12:38:39;4.07;;;1.05;;
63342;SDS011;49465;57.664;39.686;2022-11-14T12:41:07;3.92;;;1.00;;
63342;SDS011;49465;57.664;39.686;2022-11-14T12:43:51;3.30;;;0.85;;
63342;SDS011;49465;57.664;39.686;2022-11-14T13:12:23;3.72;;;1.10;;
63342;SDS011;49465;57.664;39.686;2022-11-14T13:15:46;3.35;;;1.17;;
63342;SDS011;49465;57.664;39.686;2022-11-14T13:18:29;2.60;;;0.80;;
63342;SDS011;49465;57.664;39.686;2022-11-14T13:21:35;4.00;;;1.00;;
63342;SDS011;49465;57.664;39.686;2022-11-14T13:24:29;1.65;;;0.80;;
63342;SDS011;49465;57.664;39.686;2022-11-14T13:27:36;1.98;;;0.95;;
63342;SDS011;49465;57.664;39.686;2022-11-14T13:30:13;3.85;;;0.90;;
63342;SDS011;49465;57.664;39.686;2022-11-14T13:35:39;3.60;;;0.88;;
63342;SDS011;49465;57.664;39.686;2022-11-14T13:47:39;3.65;;;1.13;;
63342;SDS011;49465;57.664;39.686;2022-11-14T13:50:35;3.50;;;1.40;;
63342;SDS011;49465;57.664;39.686;2022-11-14T13:53:14;2.58;;;1.15;;
63342;SDS011;49465;57.664;39.686;2022-11-14T14:01:07;6.10;;;2.50;;
63342;SDS011;49465;57.664;39.686;2022-11-14T14:09:55;6.05;;;2.05;;
63342;SDS011;49465;57.664;39.686;2022-11-14T14:12:52;3.63;;;1.60;;
63342;SDS011;49465;57.664;39.686;2022-11-14T14:15:43;4.18;;;1.40;;
63342;SDS011;49465;57.664;39.686;2022-11-14T14:27:14;5.05;;;1.70;;
63342;SDS011;49465;57.664;39.686;2022-11-14T14:30:12;2.85;;;1.20;;
63342;SDS011;49465;57.664;39.686;2022-11-14T14:35:50;4.05;;;1.70;;
63342;SDS011;49465;57.664;39.686;2022-11-14T14:38:24;4.20;;;2.00;;
63342;SDS011;49465;57.664;39.686;2022-11-14T14:40:54;3.92;;;1.27;;
63342;SDS011;49465;57.664;39.686;2022-11-14T14:43:23;8.13;;;2.50;;
63342;SDS011;49465;57.664;39.686;2022-11-14T14:45:59;5.28;;;2.20;;
63342;SDS011;49465;57.664;39.686;2022-11-14T14:48:26;5.20;;;2.38;;
63342;SDS011;49465;57.664;39.686;2022-11-14T14:50:58;6.35;;;2.85;;
63342;SDS011;49465;57.664;39.686;2022-11-14T14:53:30;6.88;;;2.38;;
63342;SDS011;49465;57.664;39.686;2022-11-14T14:56:23;3.00;;;1.17;;
63342;SDS011;49465;57.664;39.686;2022-11-14T14:58:57;2.95;;;1.00;;
63342;SDS011;49465;57.664;39.686;2022-11-14T15:01:45;1.10;;;0.70;;
63342;SDS011;49465;57.664;39.686;2022-11-14T15:04:21;2.00;;;1.00;;
63342;SDS011;49465;57.664;39.686;2022-11-14T15:06:59;3.42;;;0.80;;
63342;SDS011;49465;57.664;39.686;2022-11-14T15:09:31;3.05;;;1.20;;
63342;SDS011;49465;57.664;39.686;2022-11-14T15:12:06;3.35;;;0.90;;
63342;SDS011;49465;57.664;39.686;2022-11-14T15:14:41;2.22;;;0.90;;
63342;SDS011;49465;57.664;39.686;2022-11-14T15:17:12;3.63;;;0.90;;
63342;SDS011;49465;57.664;39.686;2022-11-14T15:19:51;2.17;;;0.80;;
63342;SDS011;49465;57.664;39.686;2022-11-14T15:22:24;2.95;;;1.00;;
63342;SDS011;49465;57.664;39.686;2022-11-14T15:25:04;3.55;;;0.75;;
63342;SDS011;49465;57.664;39.686;2022-11-14T15:27:53;1.65;;;0.77;;
63342;SDS011;49465;57.664;39.686;2022-11-14T15:30:31;4.43;;;0.70;;
63342;SDS011;49465;57.664;39.686;2022-11-14T15:33:23;2.47;;;0.90;;
63342;SDS011;49465;57.664;39.686;2022-11-14T15:36:10;3.45;;;1.13;;
63342;SDS011;49465;57.664;39.686;2022-11-14T15:38:56;2.85;;;0.90;;
63342;SDS011;49465;57.664;39.686;2022-11-14T15:41:31;2.58;;;0.90;;
63342;SDS011;49465;57.664;39.686;2022-11-14T15:44:03;3.70;;;1.00;;
63342;SDS011;49465;57.664;39.686;2022-11-14T15:46:52;2.45;;;0.80;;
63342;SDS011;49465;57.664;39.686;2022-11-14T15:49:31;1.58;;;0.60;;
63342;SDS011;49465;57.664;39.686;2022-11-14T15:52:00;1.70;;;0.68;;
63342;SDS011;49465;57.664;39.686;2022-11-14T15:54:31;2.17;;;0.70;;
63342;SDS011;49465;57.664;39.686;2022-11-14T15:57:11;1.33;;;0.60;;
63342;SDS011;49465;57.664;39.686;2022-11-14T15:59:43;3.30;;;0.68;;
63342;SDS011;49465;57.664;39.686;2022-11-14T16:02:30;2.22;;;0.70;;
63342;SDS011;49465;57.664;39.686;2022-11-14T16:05:02;3.45;;;0.70;;
63342;SDS011;49465;57.664;39.686;2022-11-14T16:07:39;3.10;;;0.60;;
63342;SDS011;49465;57.664;39.686;2022-11-14T16:10:15;2.50;;;0.55;;
63342;SDS011;49465;57.664;39.686;2022-11-14T16:12:46;2.22;;;0.70;;
63342;SDS011;49465;57.664;39.686;2022-11-14T16:15:21;3.15;;;0.60;;
63342;SDS011;49465;57.664;39.686;2022-11-14T16:17:56;2.10;;;0.60;;
63342;SDS011;49465;57.664;39.686;2022-11-14T16:20:28;2.00;;;0.57;;
63342;SDS011;49465;57.664;39.686;2022-11-14T16:23:03;2.17;;;0.60;;
63342;SDS011;49465;57.664;39.686;2022-11-14T16:25:41;1.80;;;0.50;;
63342;SDS011;49465;57.664;39.686;2022-11-14T16:28:13;1.20;;;0.60;;
63342;SDS011;49465;57.664;39.686;2022-11-14T16:30:48;2.45;;;0.75;;
63342;SDS011;49465;57.664;39.686;2022-11-14T16:33:20;1.10;;;0.50;;
63342;SDS011;49465;57.664;39.686;2022-11-14T16:35:54;3.55;;;0.80;;
63342;SDS011;49465;57.664;39.686;2022-11-14T16:38:23;2.50;;;0.65;;
63342;SDS011;49465;57.664;39.686;2022-11-14T16:40:52;3.35;;;0.77;;
63342;SDS011;49465;57.664;39.686;2022-11-14T16:43:24;2.65;;;0.60;;
63342;SDS011;49465;57.664;39.686;2022-11-14T16:45:50;3.80;;;0.77;;
63342;SDS011;49465;57.664;39.686;2022-11-14T16:48:24;3.10;;;0.80;;
63342;SDS011;49465;57.664;39.686;2022-11-14T16:50:52;2.50;;;0.73;;
63342;SDS011;49465;57.664;39.686;2022-11-14T16:56:05;2.35;;;0.77;;
63342;SDS011;49465;57.664;39.686;2022-11-14T16:58:39;2.10;;;0.60;;
63342;SDS011;49465;57.664;39.686;2022-11-14T17:01:12;3.78;;;0.80;;
63342;SDS011;49465;57.664;39.686;2022-11-14T17:03:53;1.95;;;0.60;;
63342;SDS011;49465;57.664;39.686;2022-11-14T17:06:27;2.33;;;0.60;;
63342;SDS011;49465;57.664;39.686;2022-11-14T17:09:05;2.03;;;0.73;;
63342;SDS011;49465;57.664;39.686;2022-11-14T17:11:39;3.67;;;0.75;;
63342;SDS011;49465;57.664;39.686;2022-11-14T17:14:14;2.85;;;0.77;;
63342;SDS011;49465;57.664;39.686;2022-11-14T17:16:52;3.15;;;0.60;;